createdAt,value
2022-12-09T00:00:14.281Z,12.57
2022-12-09T00:03:01.929Z,12.18
2022-12-09T00:05:29.397Z,12.80
2022-12-09T00:07:57.154Z,12.43
2022-12-09T00:10:24.833Z,12.30
2022-12-09T00:12:54.028Z,11.57
2022-12-09T00:15:21.411Z,11.50
2022-12-09T00:17:49.037Z,12.00
2022-12-09T00:20:16.450Z,10.90
2022-12-09T00:22:44.046Z,11.32
2022-12-09T00:25:11.411Z,11.93
2022-12-09T00:30:45.174Z,11.18
2022-12-09T00:33:12.915Z,12.40
2022-12-09T00:39:23.253Z,11.13
2022-12-09T00:41:50.885Z,11.15
2022-12-09T00:44:18.437Z,10.65
2022-12-09T00:46:46.262Z,11.30
2022-12-09T00:49:13.876Z,10.45
2022-12-09T00:51:41.680Z,11.55
2022-12-09T00:54:09.149Z,11.68
2022-12-09T00:56:36.943Z,11.32
2022-12-09T00:59:04.498Z,10.60
2022-12-09T01:01:32.260Z,11.65
2022-12-09T01:03:59.773Z,11.82
2022-12-09T01:06:30.011Z,10.75
2022-12-09T01:08:57.480Z,10.57
2022-12-09T01:11:27.698Z,10.80
2022-12-09T01:13:58.014Z,11.65
2022-12-09T01:16:26.959Z,11.75
2022-12-09T01:18:55.249Z,12.02
2022-12-09T01:21:25.730Z,12.68
2022-12-09T01:23:53.088Z,11.80
2022-12-09T01:26:20.931Z,12.65
2022-12-09T01:28:48.553Z,11.70
2022-12-09T01:31:17.857Z,12.40
2022-12-09T01:33:45.414Z,11.70
2022-12-09T01:36:23.358Z,13.10
2022-12-09T01:38:51.156Z,10.23
2022-12-09T01:41:19.887Z,11.82
2022-12-09T01:44:06.981Z,11.35
2022-12-09T01:47:01.799Z,12.68
2022-12-09T01:52:51.227Z,12.55
2022-12-09T01:55:19.107Z,11.02
2022-12-09T01:57:46.747Z,12.18
2022-12-09T02:03:46.742Z,11.68
2022-12-09T02:06:15.039Z,11.55
2022-12-09T02:08:42.778Z,11.63
2022-12-09T02:11:29.050Z,12.52
2022-12-09T02:13:59.285Z,10.70
2022-12-09T02:16:29.135Z,11.13
2022-12-09T02:19:17.606Z,11.50
2022-12-09T02:21:57.389Z,11.48
2022-12-09T02:24:27.482Z,11.23
2022-12-09T02:27:05.907Z,11.75
2022-12-09T02:29:45.773Z,11.10
2022-12-09T02:32:13.817Z,12.82
2022-12-09T02:34:44.289Z,10.60
2022-12-09T02:37:23.057Z,11.20
2022-12-09T02:39:53.154Z,10.45
2022-12-09T02:42:25.936Z,11.00
2022-12-09T02:44:53.432Z,11.13
2022-12-09T02:47:24.463Z,10.82
2022-12-09T02:49:54.834Z,11.20
2022-12-09T02:52:23.049Z,11.15
2022-12-09T02:54:53.112Z,11.10
2022-12-09T02:57:24.045Z,10.98
2022-12-09T02:59:51.923Z,10.32
2022-12-09T03:02:19.926Z,9.70
2022-12-09T03:05:07.996Z,10.77
2022-12-09T03:07:50.746Z,9.98
2022-12-09T03:10:23.612Z,10.82
2022-12-09T03:12:53.960Z,10.10
2022-12-09T03:15:23.050Z,9.82
2022-12-09T03:17:51.772Z,10.07
2022-12-09T03:20:24.932Z,10.20
2022-12-09T03:22:55.960Z,11.52
2022-12-09T03:25:26.382Z,10.15
2022-12-09T03:28:02.532Z,11.20
2022-12-09T03:30:35.501Z,11.10
2022-12-09T03:33:03.958Z,11.27
2022-12-09T03:35:36.889Z,11.13
2022-12-09T03:38:06.757Z,11.15
2022-12-09T03:40:34.418Z,11.13
2022-12-09T03:46:08.275Z,12.38
2022-12-09T03:48:47.168Z,12.75
2022-12-09T03:51:19.086Z,12.05
2022-12-09T03:53:48.800Z,11.48
2022-12-09T03:56:23.087Z,12.07
2022-12-09T03:58:53.084Z,12.95
2022-12-09T04:01:21.632Z,13.05
2022-12-09T04:03:51.701Z,12.57
2022-12-09T04:06:19.131Z,12.98
2022-12-09T04:08:47.182Z,12.93
2022-12-09T04:11:14.700Z,11.68
2022-12-09T04:13:42.286Z,11.95
2022-12-09T04:16:10.136Z,13.32
2022-12-09T04:18:37.853Z,13.88
2022-12-09T04:21:06.234Z,13.35
2022-12-09T04:23:36.755Z,13.38
2022-12-09T04:26:08.285Z,12.88
2022-12-09T04:28:35.920Z,13.35
2022-12-09T04:31:03.571Z,13.52
2022-12-09T04:33:31.307Z,14.02
2022-12-09T04:36:03.862Z,14.55
2022-12-09T04:38:31.583Z,14.52
2022-12-09T04:41:00.153Z,15.45
2022-12-09T04:43:27.908Z,14.38
2022-12-09T04:45:59.712Z,15.75
2022-12-09T04:48:27.985Z,16.25
2022-12-09T04:50:55.715Z,15.85
2022-12-09T04:53:23.595Z,16.02
2022-12-09T04:55:58.806Z,16.52
2022-12-09T04:58:26.744Z,15.50
2022-12-09T05:00:54.543Z,14.40
2022-12-09T05:03:22.610Z,13.52
2022-12-09T05:05:50.210Z,16.50
2022-12-09T05:08:18.710Z,16.42
2022-12-09T05:10:47.596Z,15.02
2022-12-09T05:13:15.665Z,14.80
2022-12-09T05:15:43.098Z,14.18
2022-12-09T05:18:11.320Z,15.65
2022-12-09T05:20:39.531Z,14.23
2022-12-09T05:23:09.627Z,17.52
2022-12-09T05:25:37.905Z,18.10
2022-12-09T05:28:05.799Z,37.83
2022-12-09T05:33:37.634Z,25.85
2022-12-09T05:39:09.428Z,17.95
2022-12-09T05:41:36.807Z,17.08
2022-12-09T05:44:04.622Z,17.95
2022-12-09T05:46:32.168Z,17.17
2022-12-09T05:49:00.272Z,20.45
2022-12-09T05:51:28.733Z,19.13
2022-12-09T05:53:57.513Z,20.48
2022-12-09T05:56:25.400Z,20.95
2022-12-09T05:58:54.142Z,21.20
2022-12-09T06:01:22.787Z,20.40
2022-12-09T06:10:39.262Z,23.42
2022-12-09T06:13:07.260Z,22.77
2022-12-09T06:15:35.197Z,20.45
2022-12-09T06:18:03.162Z,17.48
2022-12-09T06:20:31.378Z,16.73
2022-12-09T06:22:58.925Z,16.58
2022-12-09T06:25:26.741Z,16.20
2022-12-09T06:27:54.548Z,20.33
2022-12-09T06:30:22.351Z,23.30
2022-12-09T06:32:49.889Z,19.90
2022-12-09T06:39:10.179Z,24.08
2022-12-09T06:41:42.164Z,22.40
2022-12-09T06:44:16.945Z,19.02
2022-12-09T06:46:49.547Z,16.02
2022-12-09T06:49:17.370Z,15.98
2022-12-09T06:58:49.857Z,13.45
2022-12-09T07:04:23.399Z,14.70
2022-12-09T07:07:06.704Z,14.63
2022-12-09T07:09:34.702Z,13.75
2022-12-09T07:12:02.905Z,34.10
2022-12-09T07:14:30.711Z,39.20
2022-12-09T07:16:58.852Z,20.65
2022-12-09T07:19:26.465Z,26.98
2022-12-09T07:22:26.551Z,20.88
2022-12-09T07:24:54.177Z,26.90
2022-12-09T07:27:22.220Z,22.33
2022-12-09T07:29:49.904Z,27.92
2022-12-09T07:35:35.656Z,15.10
2022-12-09T07:38:03.678Z,12.90
2022-12-09T07:40:35.300Z,14.25
2022-12-09T07:43:03.135Z,12.23
2022-12-09T07:45:33.608Z,12.98
2022-12-09T07:51:33.542Z,14.65
2022-12-09T07:54:12.371Z,14.27
2022-12-09T07:56:39.987Z,15.77
2022-12-09T07:59:08.465Z,14.85
2022-12-09T08:01:36.407Z,16.50
2022-12-09T08:04:05.438Z,19.83
2022-12-09T08:06:34.077Z,17.77
2022-12-09T08:09:03.120Z,15.55
2022-12-09T08:11:31.867Z,18.08
2022-12-09T08:14:05.655Z,16.48
2022-12-09T08:16:36.736Z,15.10
2022-12-09T08:19:04.736Z,15.55
2022-12-09T08:21:32.807Z,16.17
2022-12-09T08:24:01.532Z,15.07
2022-12-09T08:26:30.821Z,15.73
2022-12-09T08:28:59.759Z,17.38
2022-12-09T08:31:28.439Z,16.98
2022-12-09T08:33:56.845Z,17.08
2022-12-09T08:36:25.717Z,18.60
2022-12-09T08:38:53.797Z,19.20
2022-12-09T08:41:23.876Z,19.88
2022-12-09T08:43:53.133Z,19.95
2022-12-09T08:46:25.105Z,19.65
2022-12-09T08:48:53.794Z,20.52
2022-12-09T08:51:21.610Z,19.75
2022-12-09T08:53:49.446Z,19.70
2022-12-09T08:56:16.990Z,19.58
2022-12-09T08:58:44.707Z,18.60
2022-12-09T09:01:18.977Z,19.58
2022-12-09T09:03:48.006Z,20.58
2022-12-09T09:06:16.486Z,18.38
2022-12-09T09:08:44.978Z,18.90
2022-12-09T09:11:14.397Z,19.90
2022-12-09T09:13:43.025Z,20.23
2022-12-09T09:16:12.344Z,22.35
2022-12-09T09:18:40.358Z,20.38
2022-12-09T09:21:09.008Z,22.35
2022-12-09T09:23:37.492Z,17.60
2022-12-09T09:26:05.059Z,17.60
2022-12-09T09:28:33.550Z,18.08
2022-12-09T09:31:01.796Z,18.45
2022-12-09T09:33:29.971Z,19.27
2022-12-09T09:35:58.463Z,18.77
2022-12-09T09:38:27.031Z,17.52
2022-12-09T09:40:56.792Z,18.15
2022-12-09T09:43:36.991Z,16.08
2022-12-09T09:46:06.193Z,14.60
2022-12-09T09:48:35.261Z,15.43
2022-12-09T09:51:05.226Z,14.98
2022-12-09T09:53:34.863Z,14.05
2022-12-09T09:56:02.290Z,11.95
2022-12-09T09:58:35.803Z,13.63
2022-12-09T10:01:07.853Z,10.85
2022-12-09T10:03:58.992Z,14.02
2022-12-09T10:07:07.975Z,13.57
2022-12-09T10:09:39.416Z,14.25
2022-12-09T10:12:09.939Z,13.97
2022-12-09T10:14:56.241Z,12.35
2022-12-09T10:17:27.097Z,25.77
2022-12-09T10:20:15.413Z,61.90
2022-12-09T10:22:46.660Z,11.57
2022-12-09T10:25:16.949Z,15.50
2022-12-09T10:27:50.591Z,12.52
2022-12-09T10:30:19.052Z,12.50
2022-12-09T10:32:47.524Z,11.85
2022-12-09T10:35:25.949Z,10.35
2022-12-09T10:37:55.743Z,10.05
2022-12-09T10:40:41.696Z,10.48
2022-12-09T10:43:22.804Z,10.68
2022-12-09T10:48:44.824Z,9.40
2022-12-09T10:51:15.796Z,10.73
2022-12-09T10:53:50.238Z,8.63
2022-12-09T10:56:20.034Z,8.77
2022-12-09T10:58:47.970Z,7.78
2022-12-09T11:01:16.211Z,8.88
2022-12-09T11:03:44.141Z,9.48
2022-12-09T11:06:28.519Z,7.82
2022-12-09T11:08:58.221Z,7.68
2022-12-09T11:11:45.765Z,8.10
2022-12-09T11:14:18.579Z,8.40
2022-12-09T11:16:46.554Z,7.47
2022-12-09T11:19:15.085Z,12.10
2022-12-09T11:21:43.007Z,8.52
2022-12-09T11:24:21.297Z,10.50
2022-12-09T11:26:49.032Z,8.85
2022-12-09T11:29:17.923Z,8.98
2022-12-09T11:31:46.306Z,9.15
2022-12-09T11:34:17.213Z,7.85
2022-12-09T11:36:50.149Z,7.65
2022-12-09T11:39:19.603Z,7.93
2022-12-09T11:41:49.177Z,7.30
2022-12-09T11:44:25.539Z,7.68
2022-12-09T11:46:56.286Z,9.32
2022-12-09T11:49:44.148Z,8.13
2022-12-09T11:55:31.958Z,7.57
2022-12-09T11:58:04.635Z,8.18
2022-12-09T12:00:39.726Z,8.63
2022-12-09T12:03:17.642Z,9.32
2022-12-09T12:05:47.581Z,9.02
2022-12-09T12:08:30.397Z,9.57
2022-12-09T12:11:00.827Z,12.88
2022-12-09T12:13:29.600Z,9.27
2022-12-09T12:15:56.955Z,10.02
2022-12-09T12:18:27.385Z,9.70
2022-12-09T12:21:12.448Z,8.43
2022-12-09T12:24:12.587Z,9.55
2022-12-09T12:26:58.071Z,10.25
2022-12-09T12:29:25.715Z,9.65
2022-12-09T12:31:59.177Z,10.27
2022-12-09T12:41:34.627Z,10.52
2022-12-09T12:44:16.131Z,11.27
2022-12-09T12:47:01.989Z,10.20
2022-12-09T12:49:47.257Z,9.40
2022-12-09T12:52:47.058Z,11.18
2022-12-09T12:55:20.678Z,9.50
2022-12-09T12:57:54.720Z,11.30
2022-12-09T13:00:23.565Z,10.52
2022-12-09T13:06:20.229Z,8.77
2022-12-09T13:08:58.401Z,9.52
2022-12-09T13:11:35.832Z,9.38
2022-12-09T13:14:14.358Z,9.27
2022-12-09T13:16:43.441Z,9.75
2022-12-09T13:19:16.821Z,9.23
2022-12-09T13:21:57.879Z,10.43
2022-12-09T13:28:02.173Z,9.07
2022-12-09T13:30:35.972Z,9.82
2022-12-09T13:39:51.411Z,10.52
2022-12-09T13:42:27.764Z,11.32
2022-12-09T13:45:04.098Z,12.18
2022-12-09T13:47:34.325Z,12.30
2022-12-09T13:50:04.065Z,13.02
2022-12-09T13:52:45.968Z,12.48
2022-12-09T13:55:23.009Z,11.25
2022-12-09T13:57:59.948Z,10.82
2022-12-09T14:00:29.010Z,12.10
2022-12-09T14:03:04.372Z,10.95
2022-12-09T14:05:35.583Z,10.05
2022-12-09T14:11:39.779Z,8.48
2022-12-09T14:14:25.165Z,9.18
2022-12-09T14:16:53.669Z,8.60
2022-12-09T14:22:36.683Z,7.90
2022-12-09T14:28:36.407Z,8.18
2022-12-09T14:31:10.120Z,7.97
2022-12-09T14:33:38.965Z,8.40
2022-12-09T14:36:15.543Z,8.48
2022-12-09T14:41:38.839Z,8.02
2022-12-09T14:44:18.786Z,8.75
2022-12-09T14:46:49.200Z,8.45
2022-12-09T14:49:24.681Z,9.77
2022-12-09T14:51:57.164Z,8.68
2022-12-09T14:54:24.489Z,9.20
2022-12-09T14:56:59.733Z,9.35
2022-12-09T15:02:32.028Z,9.75
2022-12-09T15:05:01.082Z,10.55
2022-12-09T15:07:32.478Z,10.02
2022-12-09T15:10:20.472Z,9.52
2022-12-09T15:16:01.673Z,10.70
2022-12-09T15:18:29.998Z,10.43
2022-12-09T15:20:58.072Z,9.20
2022-12-09T15:23:33.365Z,11.63
2022-12-09T15:26:29.127Z,12.63
2022-12-09T15:28:57.471Z,11.80
2022-12-09T15:31:45.273Z,12.32
2022-12-09T15:34:15.578Z,13.00
2022-12-09T15:36:45.577Z,12.95
2022-12-09T15:39:29.235Z,12.10
2022-12-09T15:41:58.653Z,13.13
2022-12-09T15:44:27.004Z,13.68
2022-12-09T15:46:55.563Z,12.52
2022-12-09T15:52:38.652Z,14.52
2022-12-09T15:55:07.366Z,15.10
2022-12-09T16:01:07.003Z,14.98
2022-12-09T16:03:35.247Z,13.15
2022-12-09T16:06:08.209Z,14.82
2022-12-09T16:08:53.787Z,15.73
2022-12-09T16:11:39.734Z,15.85
2022-12-09T16:14:07.859Z,16.15
2022-12-09T16:20:26.172Z,15.90
2022-12-09T16:23:26.291Z,15.95
2022-12-09T16:29:20.318Z,15.82
2022-12-09T16:35:27.220Z,16.77
2022-12-09T16:37:57.792Z,16.48
2022-12-09T16:47:30.009Z,18.17
2022-12-09T16:50:15.765Z,17.13
2022-12-09T16:53:22.379Z,18.02
2022-12-09T16:56:16.885Z,18.27
2022-12-09T17:02:40.558Z,18.50
2022-12-09T17:05:28.517Z,19.95
2022-12-09T17:08:16.299Z,19.52
2022-12-09T17:11:04.331Z,19.05
2022-12-09T17:13:51.891Z,20.35
2022-12-09T17:16:39.915Z,18.73
2022-12-09T17:19:27.520Z,19.10
2022-12-09T17:22:16.561Z,20.00
2022-12-09T17:25:14.470Z,19.13
2022-12-09T17:28:03.463Z,18.83
2022-12-09T17:34:25.323Z,19.10
2022-12-09T17:37:13.360Z,19.67
2022-12-09T17:40:03.735Z,18.63
2022-12-09T17:42:51.612Z,19.92
2022-12-09T17:49:13.362Z,19.52
2022-12-09T17:52:01.220Z,20.25
2022-12-09T17:54:48.794Z,18.98
2022-12-09T18:01:15.303Z,17.73
2022-12-09T18:04:08.281Z,21.50
2022-12-09T18:09:43.709Z,19.10
2022-12-09T18:12:31.294Z,20.52
2022-12-09T18:15:19.154Z,20.10
2022-12-09T18:18:06.822Z,21.55
2022-12-09T18:20:59.085Z,20.23
2022-12-09T18:27:21.587Z,19.70
2022-12-09T18:30:09.894Z,21.77
2022-12-09T18:32:58.150Z,21.75
2022-12-09T18:35:45.768Z,20.63
2022-12-09T18:38:36.446Z,21.70
2022-12-09T18:41:25.228Z,20.48
2022-12-09T18:44:14.627Z,22.38
2022-12-09T18:47:02.511Z,22.05
2022-12-09T18:49:50.347Z,19.27
2022-12-09T18:52:48.100Z,20.38
2022-12-09T18:59:10.367Z,21.85
2022-12-09T19:01:58.453Z,22.98
2022-12-09T19:05:01.224Z,21.85
2022-12-09T19:10:36.767Z,22.40
2022-12-09T19:16:58.458Z,23.20
2022-12-09T19:19:46.338Z,22.55
2022-12-09T19:22:33.883Z,23.75
2022-12-09T19:25:21.787Z,22.17
2022-12-09T19:28:09.295Z,20.73
2022-12-09T19:34:31.286Z,18.15
2022-12-09T19:40:53.296Z,20.88
2022-12-09T19:43:41.167Z,21.50
2022-12-09T19:46:29.667Z,21.33
2022-12-09T19:49:18.298Z,23.40
2022-12-09T19:52:05.918Z,22.25
2022-12-09T19:54:53.949Z,22.63
2022-12-09T19:57:41.662Z,22.83
2022-12-09T20:00:29.530Z,21.85
2022-12-09T20:06:47.900Z,22.70
2022-12-09T20:09:17.358Z,24.40
2022-12-09T20:11:44.956Z,22.20
2022-12-09T20:14:18.262Z,23.30
2022-12-09T20:16:45.577Z,21.65
2022-12-09T20:22:52.212Z,23.67
2022-12-09T20:25:20.598Z,23.70
2022-12-09T20:27:47.993Z,24.88
2022-12-09T20:30:15.761Z,24.42
2022-12-09T20:32:43.279Z,24.73
2022-12-09T20:35:10.993Z,24.13
2022-12-09T20:37:38.297Z,25.75
2022-12-09T20:40:06.514Z,26.90
2022-12-09T20:42:34.055Z,26.17
2022-12-09T20:51:47.342Z,26.15
2022-12-09T20:54:15.147Z,26.70
2022-12-09T20:56:51.930Z,25.25
2022-12-09T20:59:38.273Z,27.60
2022-12-09T21:02:09.446Z,26.65
2022-12-09T21:04:40.042Z,29.50
2022-12-09T21:07:07.485Z,28.80
2022-12-09T21:09:35.159Z,26.95
2022-12-09T21:15:34.392Z,28.10
2022-12-09T21:18:02.017Z,28.02
2022-12-09T21:20:29.571Z,26.60
2022-12-09T21:23:25.210Z,27.63
2022-12-09T21:25:44.570Z,27.50
2022-12-09T21:28:12.218Z,29.92
2022-12-09T21:30:39.547Z,27.08
2022-12-09T21:33:07.224Z,25.80
2022-12-09T21:35:34.520Z,26.05
2022-12-09T21:38:02.263Z,28.38
2022-12-09T21:40:30.250Z,27.75
2022-12-09T21:42:58.930Z,28.58
2022-12-09T21:45:26.930Z,27.35
2022-12-09T21:47:54.924Z,26.23
2022-12-09T21:50:22.229Z,30.30
2022-12-09T21:52:49.870Z,26.88
2022-12-09T21:55:17.363Z,26.20
2022-12-09T21:57:44.948Z,23.40
2022-12-09T22:00:12.582Z,28.20
2022-12-09T22:02:40.319Z,29.48
2022-12-09T22:05:10.219Z,26.15
2022-12-09T22:07:37.843Z,26.55
2022-12-09T22:10:05.625Z,27.35
2022-12-09T22:12:34.884Z,27.65
2022-12-09T22:15:02.319Z,27.00
2022-12-09T22:17:31.721Z,26.33
2022-12-09T22:20:33.409Z,28.60
2022-12-09T22:22:46.639Z,23.95
2022-12-09T22:25:14.022Z,26.95
2022-12-09T22:27:41.669Z,22.17
2022-12-09T22:30:09.546Z,24.75
2022-12-09T22:32:41.147Z,24.92
2022-12-09T22:35:10.152Z,23.63
2022-12-09T22:37:44.836Z,25.23
2022-12-09T22:40:12.532Z,24.70
2022-12-09T22:42:40.224Z,25.52
2022-12-09T22:45:07.688Z,24.38
2022-12-09T22:47:35.303Z,24.88
2022-12-09T22:50:02.665Z,27.63
2022-12-09T22:52:30.266Z,24.52
2022-12-09T22:54:57.624Z,25.70
2022-12-09T22:57:25.237Z,23.23
2022-12-09T22:59:52.560Z,24.05
2022-12-09T23:02:20.262Z,25.88
2022-12-09T23:04:47.647Z,25.42
2022-12-09T23:07:15.191Z,25.83
2022-12-09T23:09:42.613Z,26.05
2022-12-09T23:12:10.235Z,24.33
2022-12-09T23:14:37.626Z,23.52
2022-12-09T23:17:05.232Z,24.23
2022-12-09T23:19:32.646Z,26.88
2022-12-09T23:22:00.259Z,22.08
2022-12-09T23:24:27.571Z,23.30
2022-12-09T23:26:55.345Z,25.88
2022-12-09T23:29:22.900Z,26.50
2022-12-09T23:31:50.525Z,23.80
2022-12-09T23:34:17.933Z,23.85
2022-12-09T23:36:45.730Z,25.08
2022-12-09T23:39:14.828Z,22.98
2022-12-09T23:41:42.857Z,25.92
2022-12-09T23:44:11.454Z,23.35
2022-12-09T23:46:39.576Z,26.00
2022-12-09T23:49:07.375Z,24.52
2022-12-09T23:51:35.876Z,26.88
2022-12-09T23:54:04.464Z,24.50
2022-12-09T23:56:34.508Z,24.23
2022-12-09T23:59:02.964Z,22.50
